Time;durP1;ratioP1;P1;durP2;ratioP2;P2;SDS_P1;SDS_P2;PMS_P1;PMS_P2;Temp;Humidity;BMP_temperature;BMP_pressure;BME280_temperature;BME280_humidity;BME280_pressure;Samples;Min_cycle;Max_cycle;Signal;HPM_P1;HPM_P2
2020/12/07 00:00:36;;;;;;;23.38;13.57;;;7.50;99.90;;;;;;5028679;28;20045;-38
2020/12/07 00:03:01;;;;;;;23.92;12.73;;;7.50;99.90;;;;;;5023087;28;20083;-41
2020/12/07 00:05:27;;;;;;;24.33;13.50;;;7.50;99.90;;;;;;5023472;28;20476;-39
2020/12/07 00:07:52;;;;;;;25.00;14.27;;;7.50;99.90;;;;;;5016374;28;20071;-41
2020/12/07 00:10:18;;;;;;;24.52;13.65;;;7.60;99.90;;;;;;5014698;28;20034;-38
2020/12/07 00:12:45;;;;;;;28.55;13.68;;;7.60;99.90;;;;;;5027865;28;20125;-38
2020/12/07 00:15:11;;;;;;;25.15;14.25;;;7.70;99.90;;;;;;5021151;28;20491;-40
2020/12/07 00:17:36;;;;;;;23.42;13.95;;;7.70;99.90;;;;;;5022541;28;20029;-41
2020/12/07 00:20:03;;;;;;;23.35;12.32;;;7.70;99.90;;;;;;5022590;28;20033;-41
2020/12/07 00:22:29;;;;;;;23.90;14.02;;;7.70;99.90;;;;;;5018981;28;20523;-38
2020/12/07 00:24:56;;;;;;;19.30;11.52;;;7.70;99.90;;;;;;5018773;28;20036;-38
2020/12/07 00:27:24;;;;;;;28.60;14.68;;;7.70;99.90;;;;;;5017152;28;20034;-40
2020/12/07 00:29:51;;;;;;;24.48;13.02;;;7.60;99.90;;;;;;5019920;28;20091;-43
2020/12/07 00:32:17;;;;;;;23.45;12.57;;;7.70;99.90;;;;;;5014879;28;20022;-39
2020/12/07 00:34:43;;;;;;;25.08;13.68;;;7.60;99.90;;;;;;5015911;28;20100;-40
2020/12/07 00:37:09;;;;;;;21.90;12.60;;;7.60;99.90;;;;;;5016531;28;20036;-40
2020/12/07 00:39:35;;;;;;;24.42;13.05;;;7.60;99.90;;;;;;5015666;28;20033;-40
2020/12/07 00:42:01;;;;;;;21.30;12.52;;;7.60;99.90;;;;;;5019073;28;20546;-40
2020/12/07 00:44:26;;;;;;;25.35;15.43;;;7.60;99.90;;;;;;5019202;28;20034;-39
2020/12/07 00:46:52;;;;;;;23.75;13.70;;;7.60;99.90;;;;;;5014545;28;20025;-38
2020/12/07 00:49:17;;;;;;;23.98;14.43;;;7.60;99.90;;;;;;5016677;28;20476;-39
2020/12/07 00:51:43;;;;;;;28.92;15.60;;;7.50;99.90;;;;;;5018509;28;20539;-38
2020/12/07 00:54:08;;;;;;;26.02;13.50;;;7.50;99.90;;;;;;5016792;28;20053;-43
2020/12/07 00:56:34;;;;;;;30.65;15.70;;;7.60;99.90;;;;;;5016927;28;20488;-39
2020/12/07 00:59:00;;;;;;;29.02;16.48;;;7.50;99.90;;;;;;5016892;28;20062;-39
2020/12/07 01:01:25;;;;;;;24.42;12.63;;;7.60;99.90;;;;;;5016137;28;20100;-41
2020/12/07 01:03:51;;;;;;;26.00;14.25;;;7.50;99.90;;;;;;5016335;28;20843;-39
2020/12/07 01:06:16;;;;;;;26.30;14.75;;;7.50;99.90;;;;;;5024019;28;20060;-38
2020/12/07 01:08:42;;;;;;;30.48;15.52;;;7.50;99.90;;;;;;5017438;28;20038;-43
2020/12/07 01:11:07;;;;;;;26.75;14.35;;;7.50;99.90;;;;;;5019028;28;20088;-39
2020/12/07 01:13:33;;;;;;;29.50;16.08;;;7.50;99.90;;;;;;5027976;28;20037;-39
2020/12/07 01:15:58;;;;;;;26.05;15.88;;;7.50;99.90;;;;;;5014585;28;20107;-38
2020/12/07 01:18:24;;;;;;;26.20;14.60;;;7.50;99.90;;;;;;5019930;28;20477;-38
2020/12/07 01:20:49;;;;;;;25.42;15.23;;;7.50;99.90;;;;;;5024040;28;20037;-39
2020/12/07 01:23:15;;;;;;;23.70;14.38;;;7.40;99.90;;;;;;5018543;28;20432;-38
2020/12/07 01:25:40;;;;;;;27.05;15.48;;;7.40;99.90;;;;;;5019375;28;20041;-40
2020/12/07 01:28:06;;;;;;;28.55;15.35;;;7.40;99.90;;;;;;5021195;28;20528;-38
2020/12/07 01:30:31;;;;;;;30.10;14.65;;;7.40;99.90;;;;;;5020911;28;20071;-38
2020/12/07 01:32:57;;;;;;;26.88;13.77;;;7.40;99.90;;;;;;5020456;28;20025;-39
2020/12/07 01:35:23;;;;;;;25.00;14.20;;;7.30;99.90;;;;;;5017924;28;20067;-42
2020/12/07 01:37:48;;;;;;;25.10;14.55;;;7.30;99.90;;;;;;5016161;28;20030;-39
2020/12/07 01:40:13;;;;;;;25.17;14.80;;;7.30;99.90;;;;;;5022970;28;20064;-39
2020/12/07 01:42:39;;;;;;;29.10;14.55;;;7.20;99.90;;;;;;5023639;28;20678;-38
2020/12/07 01:45:05;;;;;;;23.25;13.20;;;7.30;99.90;;;;;;5022347;28;20032;-39
2020/12/07 01:47:30;;;;;;;29.63;15.20;;;7.20;99.90;;;;;;5021016;28;20064;-39
2020/12/07 01:49:56;;;;;;;26.92;14.07;;;7.20;99.90;;;;;;5019786;28;20499;-39
2020/12/07 01:52:23;;;;;;;27.88;14.30;;;7.20;99.90;;;;;;5021867;28;20041;-41
2020/12/07 01:54:50;;;;;;;25.33;13.07;;;7.10;99.90;;;;;;5022680;28;20140;-40
2020/12/07 01:57:15;;;;;;;23.45;12.68;;;7.10;99.90;;;;;;5021096;28;20062;-39
2020/12/07 01:59:41;;;;;;;24.75;14.00;;;7.10;99.90;;;;;;5020958;28;20477;-39
2020/12/07 02:02:07;;;;;;;24.38;13.32;;;7.10;99.90;;;;;;5023123;28;20057;-39
2020/12/07 02:04:32;;;;;;;26.70;13.95;;;7.10;99.90;;;;;;5022323;28;20036;-39
2020/12/07 02:06:58;;;;;;;20.95;12.18;;;7.00;99.90;;;;;;5019496;28;20021;-38
2020/12/07 02:09:30;;;;;;;25.55;11.98;;;7.10;99.90;;;;;;5021302;28;20030;-39
2020/12/07 02:11:55;;;;;;;24.83;13.23;;;7.10;99.90;;;;;;5021640;28;20026;-41
2020/12/07 02:14:21;;;;;;;28.00;14.45;;;7.10;99.90;;;;;;5021867;28;20032;-41
2020/12/07 02:16:47;;;;;;;23.83;13.88;;;7.20;99.90;;;;;;5022744;28;20064;-41
2020/12/07 02:19:13;;;;;;;20.55;13.25;;;7.20;99.90;;;;;;5022528;28;20034;-39
2020/12/07 02:21:39;;;;;;;26.23;14.18;;;7.10;99.90;;;;;;5023094;28;20029;-40
2020/12/07 02:24:05;;;;;;;25.52;13.20;;;7.20;99.90;;;;;;5019500;28;20451;-42
2020/12/07 02:26:30;;;;;;;24.77;14.10;;;7.20;99.90;;;;;;5020334;28;20076;-42
2020/12/07 02:28:56;;;;;;;23.58;11.88;;;7.20;99.90;;;;;;5020390;28;20036;-43
2020/12/07 02:31:21;;;;;;;22.52;12.82;;;7.10;99.90;;;;;;5020351;28;20026;-40
2020/12/07 02:33:47;;;;;;;24.52;14.65;;;7.00;99.90;;;;;;5020091;28;20061;-42
2020/12/07 02:36:12;;;;;;;25.27;13.50;;;6.90;99.90;;;;;;5025885;28;20544;-40
2020/12/07 02:38:38;;;;;;;22.92;13.10;;;6.90;99.90;;;;;;5019136;28;20112;-42
2020/12/07 02:41:03;;;;;;;24.13;12.95;;;6.90;99.90;;;;;;5028525;28;20133;-40
2020/12/07 02:43:29;;;;;;;25.13;12.32;;;6.90;99.90;;;;;;5022860;28;20045;-39
2020/12/07 02:45:54;;;;;;;24.52;15.88;;;6.80;99.90;;;;;;5022550;28;20033;-38
2020/12/07 02:48:20;;;;;;;22.80;11.98;;;6.80;99.90;;;;;;5028558;28;20042;-41
2020/12/07 02:50:45;;;;;;;19.48;12.15;;;6.80;99.90;;;;;;5031179;28;20033;-39
2020/12/07 02:53:11;;;;;;;22.10;12.93;;;6.90;99.90;;;;;;5016600;28;20044;-40
2020/12/07 02:55:36;;;;;;;23.70;14.23;;;6.80;99.90;;;;;;5020565;28;20388;-39
2020/12/07 02:58:02;;;;;;;27.85;14.32;;;6.80;99.90;;;;;;5029022;28;20052;-38
2020/12/07 03:00:27;;;;;;;28.08;12.93;;;6.80;99.90;;;;;;5028088;28;20039;-38
2020/12/07 03:02:53;;;;;;;25.55;13.50;;;6.80;99.90;;;;;;5027726;28;20025;-41
2020/12/07 03:05:18;;;;;;;24.50;14.40;;;6.80;99.90;;;;;;5023832;28;20034;-39
2020/12/07 03:07:44;;;;;;;27.00;15.30;;;6.80;99.90;;;;;;5016252;28;20400;-40
2020/12/07 03:10:09;;;;;;;27.08;14.65;;;6.80;99.90;;;;;;5019423;28;20042;-38
2020/12/07 03:12:35;;;;;;;22.60;12.38;;;6.80;99.90;;;;;;5021807;28;20037;-40
2020/12/07 03:15:00;;;;;;;24.20;13.48;;;6.80;99.90;;;;;;5020569;28;20485;-43
2020/12/07 03:17:26;;;;;;;23.65;12.98;;;6.80;99.90;;;;;;5022706;28;20024;-40
2020/12/07 03:19:51;;;;;;;26.15;14.65;;;6.80;99.90;;;;;;5025014;28;20096;-39
2020/12/07 03:22:17;;;;;;;22.63;13.65;;;6.80;99.90;;;;;;5017660;28;20050;-39
2020/12/07 03:24:43;;;;;;;25.45;14.57;;;6.80;99.90;;;;;;5019666;28;20033;-41
2020/12/07 03:27:08;;;;;;;29.98;16.75;;;6.80;99.90;;;;;;5020214;28;20026;-42
2020/12/07 03:29:34;;;;;;;27.50;14.77;;;6.80;99.90;;;;;;5018485;28;20091;-39
2020/12/07 03:31:59;;;;;;;25.75;14.25;;;6.80;99.90;;;;;;5021176;28;20361;-40
2020/12/07 03:34:25;;;;;;;23.73;13.88;;;6.70;99.90;;;;;;5020691;28;20033;-39
2020/12/07 03:36:50;;;;;;;21.25;12.25;;;6.70;99.90;;;;;;5019291;28;20446;-41
2020/12/07 03:39:16;;;;;;;21.75;12.73;;;6.70;99.90;;;;;;5018585;28;20108;-41
2020/12/07 03:41:41;;;;;;;28.42;15.13;;;6.70;99.90;;;;;;5016918;28;20036;-39
2020/12/07 03:44:07;;;;;;;33.72;16.90;;;6.60;99.90;;;;;;5021326;28;20067;-39
2020/12/07 03:46:32;;;;;;;26.75;16.20;;;6.60;99.90;;;;;;5020055;28;20033;-40
2020/12/07 03:48:58;;;;;;;26.45;15.57;;;6.70;99.90;;;;;;5023081;28;20025;-41
2020/12/07 03:51:23;;;;;;;26.90;15.52;;;6.60;99.90;;;;;;5019821;28;20026;-40
2020/12/07 03:53:49;;;;;;;26.35;15.63;;;6.60;99.90;;;;;;5019726;28;20083;-42
2020/12/07 03:56:15;;;;;;;28.55;15.90;;;6.60;99.90;;;;;;5017668;28;20036;-40
2020/12/07 03:58:40;;;;;;;28.25;15.00;;;6.60;99.90;;;;;;5016855;28;20382;-38
2020/12/07 04:01:07;;;;;;;27.90;15.75;;;6.60;99.90;;;;;;5016524;28;20029;-40
2020/12/07 04:03:33;;;;;;;31.55;16.58;;;6.60;99.90;;;;;;5029883;28;20030;-41
2020/12/07 04:06:13;;;;;;;28.38;17.20;;;6.60;99.90;;;;;;5023538;28;20491;-41
2020/12/07 04:08:38;;;;;;;29.85;15.63;;;6.60;99.90;;;;;;5025655;28;20033;-38
2020/12/07 04:11:04;;;;;;;31.65;17.48;;;6.60;99.90;;;;;;5026368;28;20030;-38
2020/12/07 04:13:30;;;;;;;31.83;17.13;;;6.60;99.90;;;;;;5017513;28;20024;-38
2020/12/07 04:15:56;;;;;;;29.02;15.55;;;6.60;99.90;;;;;;5024309;28;20018;-40
2020/12/07 04:18:22;;;;;;;29.98;16.70;;;6.60;99.90;;;;;;5027718;28;20357;-39
2020/12/07 04:20:47;;;;;;;27.48;16.20;;;6.60;99.90;;;;;;5026869;28;20084;-38
2020/12/07 04:23:13;;;;;;;30.77;16.65;;;6.60;99.90;;;;;;5015009;28;20053;-38
2020/12/07 04:25:38;;;;;;;26.60;14.40;;;6.60;99.90;;;;;;5018195;28;20108;-40
2020/12/07 04:28:04;;;;;;;28.35;15.82;;;6.60;99.90;;;;;;5025883;28;20064;-41
2020/12/07 04:30:29;;;;;;;30.27;15.55;;;6.60;99.90;;;;;;5024586;28;20033;-39
2020/12/07 04:32:55;;;;;;;23.45;13.50;;;6.60;99.90;;;;;;5024599;28;20377;-39
2020/12/07 04:35:21;;;;;;;27.75;14.50;;;6.50;99.90;;;;;;5021586;28;20032;-40
2020/12/07 04:37:46;;;;;;;23.98;14.02;;;6.50;99.90;;;;;;5014434;28;20029;-38
2020/12/07 04:40:12;;;;;;;30.90;16.67;;;6.50;99.90;;;;;;5021744;28;20397;-39
2020/12/07 04:42:39;;;;;;;28.80;16.13;;;6.50;99.90;;;;;;5017136;28;20026;-38
2020/12/07 04:45:06;;;;;;;30.55;17.30;;;6.50;99.90;;;;;;5029722;28;20029;-40
2020/12/07 04:47:33;;;;;;;26.80;14.85;;;6.40;99.90;;;;;;5023817;28;20515;-39
2020/12/07 04:50:02;;;;;;;27.67;14.85;;;6.40;99.90;;;;;;5022354;28;20080;-41
2020/12/07 04:52:28;;;;;;;29.58;14.60;;;6.40;99.90;;;;;;5019156;28;20079;-42
2020/12/07 04:54:56;;;;;;;27.77;14.50;;;6.40;99.90;;;;;;5024107;28;20182;-39
2020/12/07 04:57:22;;;;;;;25.85;15.43;;;6.40;99.90;;;;;;5024719;28;20648;-42
2020/12/07 04:59:48;;;;;;;23.67;14.95;;;6.40;99.90;;;;;;5019980;28;20075;-42
2020/12/07 05:02:14;;;;;;;31.48;16.38;;;6.30;99.90;;;;;;5017594;28;20112;-39
2020/12/07 05:04:40;;;;;;;24.92;13.52;;;6.30;99.90;;;;;;5017576;28;20022;-41
2020/12/07 05:07:08;;;;;;;26.38;15.65;;;6.30;99.90;;;;;;5018806;28;20461;-39
2020/12/07 05:09:36;;;;;;;24.92;14.80;;;6.30;99.90;;;;;;5034572;28;20556;-42
2020/12/07 05:12:06;;;;;;;27.73;15.15;;;6.30;99.90;;;;;;5015577;28;20055;-39
2020/12/07 05:14:33;;;;;;;24.23;14.85;;;6.30;99.90;;;;;;5016568;28;20197;-41
2020/12/07 05:16:59;;;;;;;22.50;12.23;;;6.30;99.90;;;;;;5015922;28;20030;-40
2020/12/07 05:19:25;;;;;;;27.05;15.18;;;6.20;99.90;;;;;;5020120;28;20503;-39
2020/12/07 05:21:51;;;;;;;26.85;15.15;;;6.20;99.90;;;;;;5014337;28;20444;-41
2020/12/07 05:24:17;;;;;;;19.83;13.20;;;6.20;99.90;;;;;;5022396;28;20072;-43
2020/12/07 05:26:44;;;;;;;28.70;15.60;;;6.20;99.90;;;;;;5015776;28;20042;-39
2020/12/07 05:29:18;;;;;;;26.23;13.85;;;6.20;99.90;;;;;;5016372;28;20049;-39
2020/12/07 05:31:44;;;;;;;28.00;15.82;;;6.20;99.90;;;;;;5016610;28;20018;-41
2020/12/07 05:34:10;;;;;;;24.00;14.73;;;6.20;99.90;;;;;;5013267;28;20116;-39
2020/12/07 05:36:36;;;;;;;26.38;14.50;;;6.10;99.90;;;;;;5015667;28;20087;-42
2020/12/07 05:39:07;;;;;;;27.20;15.32;;;6.10;99.90;;;;;;5021440;28;20030;-41
2020/12/07 05:41:33;;;;;;;25.83;14.48;;;6.00;99.90;;;;;;5021414;28;20026;-38
2020/12/07 05:43:59;;;;;;;29.65;14.35;;;6.00;99.90;;;;;;5033701;28;20060;-38
2020/12/07 05:46:27;;;;;;;23.60;13.43;;;5.90;99.90;;;;;;5016807;28;20088;-41
2020/12/07 05:48:55;;;;;;;29.27;15.77;;;5.80;99.90;;;;;;5019824;28;20053;-38
2020/12/07 05:51:26;;;;;;;28.02;15.85;;;5.80;99.90;;;;;;5020727;28;20109;-41
2020/12/07 05:53:52;;;;;;;24.55;13.82;;;5.80;99.90;;;;;;5025058;28;20053;-39
2020/12/07 05:56:19;;;;;;;23.75;13.63;;;5.70;99.90;;;;;;5021646;28;20033;-41
2020/12/07 05:59:09;;;;;;;25.48;14.15;;;5.70;99.90;;;;;;5019220;28;20416;-38
2020/12/07 06:01:37;;;;;;;26.15;15.15;;;5.60;99.90;;;;;;5022880;28;20025;-43
2020/12/07 06:04:03;;;;;;;24.10;13.15;;;5.60;99.90;;;;;;5018399;28;20433;-39
2020/12/07 06:06:32;;;;;;;30.60;17.70;;;5.60;99.90;;;;;;5016495;28;20083;-39
2020/12/07 06:09:05;;;;;;;26.42;15.02;;;5.60;99.90;;;;;;5020569;28;20041;-39
2020/12/07 06:11:39;;;;;;;28.55;15.93;;;5.60;99.90;;;;;;5019121;28;21240;-41
2020/12/07 06:14:06;;;;;;;23.40;13.20;;;5.60;99.90;;;;;;5020407;28;20053;-40
2020/12/07 06:16:41;;;;;;;22.75;12.65;;;5.60;99.90;;;;;;5015679;28;20026;-42
2020/12/07 06:19:15;;;;;;;21.73;12.20;;;5.60;99.90;;;;;;5020150;28;20025;-40
2020/12/07 06:21:56;;;;;;;24.33;13.38;;;5.60;99.90;;;;;;5020318;28;20030;-39
2020/12/07 06:24:22;;;;;;;23.90;13.82;;;5.70;99.90;;;;;;5016372;28;20062;-39
2020/12/07 06:27:02;;;;;;;26.17;14.07;;;5.70;99.90;;;;;;5019054;28;20037;-41
2020/12/07 06:29:29;;;;;;;28.13;14.32;;;5.80;99.90;;;;;;5018842;28;20034;-39
2020/12/07 06:31:57;;;;;;;24.65;14.02;;;5.80;99.90;;;;;;5020420;28;20030;-39
2020/12/07 06:34:31;;;;;;;24.05;12.60;;;5.90;99.90;;;;;;5020292;28;20018;-39
2020/12/07 06:36:57;;;;;;;24.63;13.50;;;5.90;99.90;;;;;;5018111;28;20032;-39
2020/12/07 06:39:22;;;;;;;22.58;12.15;;;6.00;99.90;;;;;;5019869;28;20033;-39
2020/12/07 06:41:48;;;;;;;27.27;14.95;;;6.00;99.90;;;;;;5019079;28;20136;-40
2020/12/07 06:44:17;;;;;;;23.55;13.25;;;6.00;99.90;;;;;;5021581;28;20029;-39
2020/12/07 06:47:01;;;;;;;29.05;15.68;;;6.00;99.90;;;;;;5021559;28;20033;-39
2020/12/07 06:52:12;;;;;;;25.45;13.88;;;6.10;99.90;;;;;;5017584;28;20032;-41
2020/12/07 06:57:26;;;;;;;32.33;17.15;;;6.10;99.90;;;;;;5018199;28;20104;-39
2020/12/07 07:00:17;;;;;;;28.02;15.75;;;6.10;99.90;;;;;;5018228;28;20477;-41
2020/12/07 07:02:47;;;;;;;28.42;14.95;;;6.10;99.90;;;;;;5019683;28;20030;-41
2020/12/07 07:05:15;;;;;;;26.23;14.95;;;6.00;99.90;;;;;;5022343;28;20025;-41
2020/12/07 07:07:41;;;;;;;27.00;15.70;;;6.00;99.90;;;;;;5029821;28;20472;-41
2020/12/07 07:10:10;;;;;;;29.65;16.45;;;6.00;99.90;;;;;;5018433;28;20407;-39
2020/12/07 07:12:36;;;;;;;36.63;17.98;;;6.00;99.90;;;;;;5026969;28;20468;-39
2020/12/07 07:15:03;;;;;;;28.75;17.08;;;5.90;99.90;;;;;;5026710;28;20072;-40
2020/12/07 07:17:31;;;;;;;28.38;15.15;;;5.90;99.90;;;;;;5018255;28;20069;-43
2020/12/07 07:19:58;;;;;;;29.10;16.02;;;5.80;99.90;;;;;;5021974;28;20021;-39
2020/12/07 07:22:24;;;;;;;32.60;16.45;;;5.80;99.90;;;;;;5023243;28;20080;-41
2020/12/07 07:30:19;;;;;;;28.75;17.25;;;5.90;99.90;;;;;;5025308;28;20059;-41
2020/12/07 07:32:47;;;;;;;32.60;18.30;;;5.80;99.90;;;;;;5028521;28;20081;-39
2020/12/07 07:35:17;;;;;;;28.63;15.50;;;5.90;99.90;;;;;;5016796;28;20033;-39
2020/12/07 07:37:43;;;;;;;32.92;17.40;;;5.90;99.90;;;;;;5022972;28;20021;-41
2020/12/07 07:40:16;;;;;;;29.58;16.65;;;5.90;99.90;;;;;;5020015;28;20451;-39
2020/12/07 07:42:50;;;;;;;32.50;15.98;;;5.80;99.90;;;;;;5024498;28;20432;-41
2020/12/07 07:45:20;;;;;;;30.67;18.27;;;5.80;99.90;;;;;;5018687;28;20025;-41
2020/12/07 07:48:02;;;;;;;30.40;16.95;;;5.70;99.90;;;;;;5021156;28;20026;-41
2020/12/07 08:08:16;;;;;;;28.48;15.85;;;5.70;99.90;;;;;;5020536;28;20032;-41
2020/12/07 08:15:10;;;;;;;28.73;17.67;;;5.70;99.90;;;;;;5018411;28;20095;-38
2020/12/07 08:15:41;;;;;;;28.45;17.50;;;5.70;99.90;;;;;;5017808;28;20073;-40
2020/12/07 08:18:06;;;;;;;30.50;16.77;;;5.80;99.90;;;;;;5018380;28;20117;-41
2020/12/07 08:20:35;;;;;;;31.80;16.23;;;5.80;99.90;;;;;;5015135;28;20108;-40
2020/12/07 08:23:07;;;;;;;23.35;14.27;;;5.80;99.90;;;;;;5015607;28;20046;-41
2020/12/07 08:25:52;;;;;;;30.05;16.08;;;5.80;99.90;;;;;;5016797;28;20108;-41
2020/12/07 08:28:28;;;;;;;27.45;16.17;;;5.80;99.90;;;;;;5017079;28;20087;-41
2020/12/07 08:31:08;;;;;;;30.15;16.42;;;5.80;99.90;;;;;;5020554;28;20025;-41
2020/12/07 08:33:36;;;;;;;27.35;15.70;;;5.80;99.90;;;;;;5023311;28;20071;-40
2020/12/07 08:36:04;;;;;;;30.88;16.50;;;5.90;99.90;;;;;;5027540;28;20029;-41
2020/12/07 08:38:39;;;;;;;26.85;15.52;;;5.90;99.90;;;;;;5024036;28;20487;-40
2020/12/07 08:41:06;;;;;;;27.20;14.05;;;5.90;99.90;;;;;;5018705;28;20033;-41
2020/12/07 08:43:32;;;;;;;29.60;16.00;;;5.90;99.90;;;;;;5022098;28;20112;-41
2020/12/07 08:45:58;;;;;;;29.23;15.45;;;6.00;99.90;;;;;;5018855;28;20034;-39
2020/12/07 08:48:23;;;;;;;28.48;17.17;;;6.00;99.90;;;;;;5018709;28;20424;-43
2020/12/07 08:50:49;;;;;;;29.80;17.80;;;6.00;99.90;;;;;;5020635;28;20084;-39
2020/12/07 08:53:14;;;;;;;27.33;16.15;;;6.00;99.90;;;;;;5022078;28;20034;-39
2020/12/07 08:55:40;;;;;;;28.23;17.13;;;6.00;99.90;;;;;;5022626;28;20037;-39
2020/12/07 08:58:05;;;;;;;29.70;17.30;;;6.00;99.90;;;;;;5024469;28;20485;-38
2020/12/07 09:00:31;;;;;;;30.90;16.42;;;6.10;99.90;;;;;;5021473;28;20033;-39
2020/12/07 09:02:56;;;;;;;27.10;14.48;;;6.10;99.90;;;;;;5019686;28;20045;-39
2020/12/07 09:05:22;;;;;;;25.85;16.20;;;6.10;99.90;;;;;;5026721;28;20049;-39
2020/12/07 09:07:47;;;;;;;24.20;14.82;;;6.20;99.90;;;;;;5015664;28;20100;-39
2020/12/07 09:10:13;;;;;;;28.80;16.88;;;6.20;99.90;;;;;;5021802;28;20041;-39
2020/12/07 09:12:38;;;;;;;25.55;16.00;;;6.10;99.90;;;;;;5020287;28;20021;-39
2020/12/07 09:15:04;;;;;;;27.95;16.67;;;6.20;99.90;;;;;;5019179;28;20449;-40
2020/12/07 09:17:30;;;;;;;33.22;17.30;;;6.20;99.90;;;;;;5022444;28;20040;-39
2020/12/07 09:19:56;;;;;;;26.23;15.82;;;6.20;99.90;;;;;;5018875;28;20033;-40
2020/12/07 09:22:21;;;;;;;30.08;17.20;;;6.20;99.90;;;;;;5026388;28;20049;-39
2020/12/07 09:24:47;;;;;;;30.35;16.58;;;6.20;99.90;;;;;;5018784;28;20416;-39
2020/12/07 09:27:12;;;;;;;30.80;16.63;;;6.10;99.90;;;;;;5015749;28;20416;-41
2020/12/07 09:29:38;;;;;;;28.38;15.10;;;6.20;99.90;;;;;;5018037;28;20034;-41
2020/12/07 09:32:03;;;;;;;26.05;15.43;;;6.20;99.90;;;;;;5015598;28;20033;-40
2020/12/07 09:34:29;;;;;;;27.00;15.10;;;6.20;99.90;;;;;;5016208;28;20237;-44
2020/12/07 09:36:54;;;;;;;25.05;14.80;;;6.20;99.90;;;;;;5016098;28;20460;-44
2020/12/07 09:39:20;;;;;;;26.65;15.73;;;6.20;99.90;;;;;;5015852;28;20026;-42
2020/12/07 09:41:45;;;;;;;29.67;16.65;;;6.10;99.90;;;;;;5035080;28;20096;-42
2020/12/07 09:44:11;;;;;;;31.77;17.75;;;6.20;99.90;;;;;;5014189;28;20029;-43
2020/12/07 09:46:36;;;;;;;26.20;16.15;;;6.20;99.90;;;;;;5015037;28;20116;-42
2020/12/07 09:49:01;;;;;;;26.48;14.75;;;6.20;99.90;;;;;;5015565;28;20026;-41
2020/12/07 09:51:27;;;;;;;27.73;15.98;;;6.20;99.90;;;;;;5013233;28;20125;-40
2020/12/07 09:53:52;;;;;;;25.52;15.20;;;6.20;99.90;;;;;;5016703;28;20428;-42
2020/12/07 09:56:18;;;;;;;28.90;16.63;;;6.20;99.90;;;;;;5016006;28;20034;-41
2020/12/07 09:58:43;;;;;;;25.17;14.50;;;6.20;99.90;;;;;;5015950;28;20487;-41
2020/12/07 10:01:09;;;;;;;27.30;15.55;;;6.20;99.90;;;;;;5017754;28;20301;-39
2020/12/07 10:03:34;;;;;;;28.00;16.30;;;6.20;99.90;;;;;;5022018;28;20030;-39
2020/12/07 10:06:00;;;;;;;28.90;15.98;;;6.20;99.90;;;;;;5024310;28;20481;-39
2020/12/07 10:08:25;;;;;;;28.92;17.60;;;6.20;99.90;;;;;;5013274;28;20026;-40
2020/12/07 10:10:51;;;;;;;24.48;15.38;;;6.20;99.90;;;;;;5028278;28;20096;-41
2020/12/07 10:13:17;;;;;;;25.42;16.70;;;6.20;99.90;;;;;;5024394;28;20021;-41
2020/12/07 10:15:42;;;;;;;27.55;16.05;;;6.20;99.90;;;;;;5021097;28;20397;-43
2020/12/07 10:18:08;;;;;;;25.42;15.27;;;6.30;99.90;;;;;;5024586;28;20025;-39
2020/12/07 10:20:33;;;;;;;26.88;15.75;;;6.30;99.90;;;;;;5023683;28;20041;-39
2020/12/07 10:22:59;;;;;;;28.63;16.40;;;6.30;99.90;;;;;;5014133;28;20147;-39
2020/12/07 10:25:24;;;;;;;27.58;16.75;;;6.30;99.90;;;;;;5024088;28;20029;-39
2020/12/07 10:27:50;;;;;;;29.80;16.83;;;6.40;99.90;;;;;;5023801;28;20044;-39
2020/12/07 10:30:15;;;;;;;28.13;16.20;;;6.40;99.90;;;;;;5023689;28;20472;-39
2020/12/07 10:32:41;;;;;;;27.45;16.00;;;6.40;99.90;;;;;;5027262;28;20022;-43
2020/12/07 10:35:06;;;;;;;28.33;16.02;;;6.40;99.90;;;;;;5021779;28;20388;-40
2020/12/07 10:37:32;;;;;;;26.67;15.82;;;6.40;99.90;;;;;;5021118;28;20045;-41
2020/12/07 10:39:57;;;;;;;30.38;17.13;;;6.40;99.90;;;;;;5026369;28;20037;-39
2020/12/07 10:42:23;;;;;;;23.20;14.80;;;6.40;99.90;;;;;;5022661;28;20069;-40
2020/12/07 10:44:48;;;;;;;25.80;14.43;;;6.40;99.90;;;;;;5024748;28;20060;-39
2020/12/07 10:47:14;;;;;;;29.98;16.05;;;6.40;99.90;;;;;;5020893;28;20036;-42
2020/12/07 10:49:39;;;;;;;25.15;15.55;;;6.50;99.90;;;;;;5022341;28;20622;-42
2020/12/07 10:52:05;;;;;;;25.38;16.27;;;6.60;99.90;;;;;;5026363;28;20037;-41
2020/12/07 10:54:30;;;;;;;25.55;15.45;;;6.60;99.90;;;;;;5022756;28;20500;-41
2020/12/07 10:56:56;;;;;;;27.00;17.00;;;6.60;99.90;;;;;;5020061;28;20508;-39
2020/12/07 10:59:21;;;;;;;27.30;14.90;;;6.60;99.90;;;;;;5026374;28;20034;-41
2020/12/07 11:01:47;;;;;;;30.20;15.45;;;6.60;99.90;;;;;;5019164;28;20441;-39
2020/12/07 11:04:12;;;;;;;27.13;15.80;;;6.60;99.90;;;;;;5021363;28;20113;-44
2020/12/07 11:06:43;;;;;;;26.48;15.38;;;6.60;99.90;;;;;;5023578;28;20033;-40
2020/12/07 11:09:10;;;;;;;26.20;15.95;;;6.60;99.90;;;;;;5024213;28;20441;-40
2020/12/07 11:11:36;;;;;;;23.30;15.52;;;6.60;99.90;;;;;;5021384;28;20571;-41
2020/12/07 11:14:02;;;;;;;31.85;16.92;;;6.60;99.90;;;;;;5023326;28;20029;-39
2020/12/07 11:16:27;;;;;;;26.73;14.85;;;6.60;99.90;;;;;;5022198;28;20030;-39
2020/12/07 11:18:53;;;;;;;26.30;16.20;;;6.60;99.90;;;;;;5022418;28;20087;-39
2020/12/07 11:21:19;;;;;;;30.65;15.93;;;6.60;99.90;;;;;;5020497;28;20104;-41
2020/12/07 11:23:47;;;;;;;24.95;16.00;;;6.60;99.90;;;;;;5017435;28;20052;-44
2020/12/07 11:26:14;;;;;;;28.30;17.45;;;6.60;99.90;;;;;;5020995;28;20025;-39
2020/12/07 11:28:40;;;;;;;32.97;19.63;;;6.60;99.90;;;;;;5017516;28;20060;-39
2020/12/07 11:31:11;;;;;;;28.10;16.48;;;6.60;99.90;;;;;;5022811;28;20021;-40
2020/12/07 11:33:37;;;;;;;24.40;13.98;;;6.60;99.90;;;;;;5041277;28;20029;-41
2020/12/07 11:36:03;;;;;;;29.55;16.02;;;6.50;99.90;;;;;;5025047;28;20030;-41
2020/12/07 11:38:33;;;;;;;25.40;15.43;;;6.60;99.90;;;;;;5023497;28;20080;-40
2020/12/07 11:43:54;;;;;;;27.10;15.98;;;6.60;99.90;;;;;;5022038;28;20075;-39
2020/12/07 11:46:32;;;;;;;27.42;15.10;;;6.60;99.90;;;;;;5025277;28;20022;-41
2020/12/07 11:48:59;;;;;;;25.83;13.38;;;6.60;99.90;;;;;;5029697;28;20415;-40
2020/12/07 11:51:26;;;;;;;25.73;15.40;;;6.60;99.90;;;;;;5033588;28;20590;-41
2020/12/07 11:53:54;;;;;;;27.95;17.90;;;6.60;99.90;;;;;;5026818;28;20057;-44
2020/12/07 11:56:33;;;;;;;26.55;17.10;;;6.70;99.90;;;;;;5037898;28;20117;-39
2020/12/07 11:58:59;;;;;;;28.23;15.18;;;6.70;99.90;;;;;;5018220;28;20061;-42
2020/12/07 12:01:25;;;;;;;24.73;14.93;;;6.60;99.90;;;;;;5027677;28;20076;-42
2020/12/07 12:03:51;;;;;;;27.58;16.17;;;6.70;99.90;;;;;;5031106;28;20037;-44
2020/12/07 12:06:27;;;;;;;24.52;15.50;;;6.70;99.90;;;;;;5018340;28;20038;-40
2020/12/07 12:08:53;;;;;;;23.88;16.05;;;6.70;99.90;;;;;;5020734;28;20109;-44
2020/12/07 12:11:19;;;;;;;31.77;17.05;;;6.70;99.90;;;;;;5020113;28;20061;-43
2020/12/07 12:13:45;;;;;;;26.05;14.82;;;6.70;99.90;;;;;;5020673;28;20027;-45
2020/12/07 12:16:14;;;;;;;27.35;14.68;;;6.70;99.90;;;;;;5021720;28;20108;-44
2020/12/07 12:18:40;;;;;;;27.67;16.58;;;6.70;99.90;;;;;;5021601;28;20029;-42
2020/12/07 12:21:05;;;;;;;26.35;16.08;;;6.70;99.90;;;;;;5021389;28;20029;-42
2020/12/07 12:23:31;;;;;;;22.63;13.27;;;6.80;99.90;;;;;;5021806;28;20050;-41
2020/12/07 12:25:56;;;;;;;22.90;12.55;;;6.70;99.90;;;;;;5025402;28;20520;-44
2020/12/07 12:28:22;;;;;;;26.88;15.07;;;6.70;99.90;;;;;;5016721;28;20037;-43
2020/12/07 12:30:47;;;;;;;25.90;16.13;;;6.70;99.90;;;;;;5021357;28;20381;-41
2020/12/07 12:33:13;;;;;;;25.48;13.10;;;6.80;99.90;;;;;;5019960;28;20029;-40
2020/12/07 12:35:38;;;;;;;23.98;13.80;;;6.80;99.90;;;;;;5019301;28;20026;-41
2020/12/07 12:38:04;;;;;;;32.42;16.17;;;6.80;99.90;;;;;;5019634;28;20129;-39
2020/12/07 12:40:30;;;;;;;26.30;15.93;;;6.80;99.90;;;;;;5021774;28;20033;-42
2020/12/07 12:42:55;;;;;;;24.98;14.15;;;6.80;99.90;;;;;;5016930;28;20117;-41
2020/12/07 12:45:21;;;;;;;22.10;14.25;;;6.90;99.90;;;;;;5016006;28;20109;-42
2020/12/07 12:47:46;;;;;;;23.60;13.65;;;6.90;99.90;;;;;;5017082;28;20029;-41
2020/12/07 12:50:12;;;;;;;26.73;15.52;;;6.90;99.90;;;;;;5017816;28;20099;-41
2020/12/07 12:52:38;;;;;;;23.45;14.55;;;6.90;99.90;;;;;;5013017;28;20022;-42
2020/12/07 12:55:04;;;;;;;22.63;12.88;;;6.90;99.90;;;;;;5016443;28;20025;-43
2020/12/07 12:57:29;;;;;;;27.67;16.00;;;7.00;99.90;;;;;;5015545;28;20354;-41
2020/12/07 12:59:55;;;;;;;31.15;16.30;;;7.00;99.90;;;;;;5017529;28;20037;-41
2020/12/07 13:02:20;;;;;;;27.40;16.58;;;7.10;99.90;;;;;;5027118;28;20044;-45
2020/12/07 13:04:46;;;;;;;21.23;13.95;;;7.10;99.90;;;;;;5019482;28;20041;-42
2020/12/07 13:07:11;;;;;;;25.55;15.75;;;7.10;99.90;;;;;;5025974;28;20033;-40